Sierra Blanca Regional Airport
KSRR : now visible

Airfield :











YOU CAN JOIN US ON...

 
LOGIN :

Register | Disclaimer

   EN    FR    IT 

 









Legend :    VFR   Marginal VFR   IFR   Intensive IFR   Very Intensive IFR
Visi :
Ceiling :
>= 8 km
>= 3000ft
5 to 8 km
1000 to 3000 ft
1500m to 5 km
500 to 1000 ft
800 to 1500m
200 to 500 ft
< 800m
< 200 ft
Symbols :   Thunderstorms  Fog  Heavy snow  Heavy precipitations  Wind > 20 kt






- Airport Elevation : 6814 ft


KSRR - Sierra Blanca Regional

CURRENT METAR :
  • 240555Z AUTO 29019G34KT 10SM CLR 03/M04 A3004 RMK AO2

EXPIRED METARs :
  • 240535Z AUTO 28020G27KT 10SM SCT040 03/M04 A3006 RMK AO2
  • 240515Z AUTO 29014G19KT 10SM SCT042 03/M04 A3008 RMK AO2
  • 240455Z AUTO 30015G21KT 10SM CLR 03/M05 A3007 RMK AO2
  • 240435Z AUTO 32011G18KT 10SM CLR 03/M05 A3007 RMK AO2
  • 240415Z AUTO 30013G22KT 10SM CLR 03/M05 A3006 RMK AO2
  • 240355Z AUTO 30013G23KT 10SM CLR 03/M05 A3004 RMK AO2
  • 240335Z AUTO 30012G24KT 10SM FEW046 03/M05 A3004 RMK AO2 LTG DSNT W AND NW
  • 240315Z AUTO 29015G22KT 10SM FEW043 BKN049 BKN070 03/M05 A3004 RMK AO2

TAF N/A



MET'MAP, your aeronautical weather chart ! - Copyright ORBIFLY December 2007 - Disclaimer

ORBIFLY MET'MAP TEAM :

Programming & Development : Alexandra Zaïnal
Concept & original design : Baudouin d'Aumeries
Assistance for programming : Marc-Olivier Méhu
Technical & hardware support : Manuel Goepfert

Contact : metmap@orbifly.com




SOURCES & CREDITS :

   NOAA       Earth
Advisory